Date,TemperatureHighF,TemperatureAvgF,TemperatureLowF,DewpointHighF,DewpointAvgF,DewpointLowF,HumidityHigh,HumidityAvg,HumidityLow,PressureMaxIn,PressureMinIn,WindSpeedMaxMPH,WindSpeedAvgMPH,GustSpeedMaxMPH,PrecipitationSumIn
2013-1-23,15.9,12.0,6.3,4.7,-2.8,-6.0,70,51,42,30.13,30.06,10,2,13,0.00
2013-1-24,21.0,11.4,2.3,4.5,-3.4,-6.4,81,52,34,30.22,30.06,9,2,9,0.00
2013-1-25,23.8,16.4,7.2,14.5,0.4,-6.5,88,51,29,30.30,30.04,6,1,6,0.00
2013-1-26,24.9,16.9,8.3,14.9,7.5,-3.5,93,69,36,30.23,29.99,9,1,10,0.00
2013-1-27,31.7,21.6,14.1,15.0,6.5,3.1,81,54,33,30.45,30.23,7,1,8,0.00
2013-1-28,32.0,24.3,15.9,26.7,16.1,4.3,96,73,41,30.44,29.99,5,0,5,0.00
2013-1-29,33.7,30.5,26.3,32.7,29.4,25.1,98,96,93,30.17,29.99,2,0,2,0.15
2013-1-30,60.0,48.9,32.8,57.9,48.2,32.3,100,98,91,30.13,29.43,13,2,14,0.13
2013-1-31,60.5,48.0,30.7,59.6,40.0,18.0,98,76,45,29.58,28.96,24,4,27,0.55
2013-2-1,32.4,28.1,21.8,19.8,12.9,6.6,73,53,37,30.07,29.58,11,3,11,0.00
2013-2-2,30.1,24.5,17.7,15.7,10.7,4.1,74,56,43,30.24,30.03,8,1,8,0.00
2013-2-3,29.2,24.8,20.3,25.4,21.2,15.6,94,86,66,30.04,29.71,9,0,9,0.00
2013-2-4,29.1,23.7,19.3,21.7,14.1,9.0,93,68,44,29.94,29.71,11,2,11,0.00
2013-2-5,26.7,24.1,20.4,23.1,17.7,12.4,93,76,68,30.00,29.91,4,0,4,0.00
2013-2-6,38.2,29.9,24.4,28.6,20.7,7.7,95,71,46,30.28,29.90,9,1,9,0.01
2013-2-7,31.2,25.0,16.2,20.1,9.2,5.9,84,52,36,30.50,30.28,6,0,7,0.00
2013-2-8,32.2,27.7,17.9,31.4,25.0,14.6,99,90,65,30.46,29.53,10,2,10,0.02
2013-2-9,23.8,19.7,14.6,22.6,18.0,10.9,96,93,85,30.18,29.50,9,2,9,0.00
2013-2-10,37.3,21.6,4.9,25.0,14.7,1.6,88,76,46,30.38,30.18,5,0,5,0.04
2013-2-11,45.6,32.7,14.0,45.6,31.5,11.1,100,95,85,30.34,29.58,7,0,10,0.55
2013-2-12,43.2,38.2,31.7,41.5,30.9,26.0,97,76,59,29.87,29.60,10,2,12,0.00
2013-2-13,42.8,33.7,23.6,30.1,25.9,20.9,93,74,54,29.85,29.66,6,0,6,0.00
2013-2-14,44.4,35.5,29.3,30.1,25.4,22.4,95,69,43,29.98,29.69,6,0,6,0.00
2013-2-15,51.4,37.7,25.8,37.1,31.5,23.8,98,80,56,29.99,29.88,8,1,9,0.00
2013-2-16,37.3,33.5,28.5,33.1,29.4,20.7,97,85,62,29.93,29.65,6,0,6,0.01
2013-2-17,29.8,22.3,16.8,23.8,13.4,3.3,94,71,43,29.68,29.38,14,3,21,0.00
2013-2-18,31.2,22.3,14.9,11.4,4.3,0.3,71,47,28,30.15,29.69,13,3,13,0.00
2013-2-19,47.7,34.7,17.6,43.6,26.8,3.8,99,74,49,30.17,29.56,11,1,11,0.22
2013-2-20,41.3,32.0,25.7,41.0,21.5,11.4,99,67,44,29.77,29.52,12,3,12,0.00
2013-2-21,34.0,28.1,24.0,22.2,16.7,13.7,80,62,49,30.18,29.76,10,2,10,0.00
2013-2-22,39.7,30.9,21.4,26.2,21.8,17.9,87,70,52,30.35,30.18,8,1,9,0.00
2013-2-23,38.3,33.9,28.6,32.8,30.1,24.9,98,86,74,30.31,29.87,9,1,9,0.10
2013-2-24,35.7,33.3,31.4,35.2,33.0,30.9,99,99,98,29.87,29.66,5,0,5,0.46
2013-2-25,39.2,34.1,28.4,36.4,32.1,27.9,99,92,78,30.22,29.86,4,0,4,0.06
2013-2-26,45.2,36.9,31.2,35.7,30.9,27.4,99,80,56,30.31,30.11,9,1,9,0.00
2013-2-27,42.2,39.0,35.7,41.8,38.3,31.9,100,98,86,30.12,29.55,18,2,18,1.06
2013-2-28,45.7,37.6,30.7,41.5,36.0,30.1,100,94,80,29.62,29.50,3,0,3,0.01
2013-3-1,43.6,36.8,29.6,37.0,31.2,28.6,100,81,65,29.66,29.50,6,0,6,0.00
2013-3-2,42.2,37.7,34.3,34.0,29.6,27.8,86,72,62,29.66,29.60,6,0,6,0.00
2013-3-3,42.7,35.8,31.9,34.1,29.5,26.3,95,78,64,29.62,29.53,5,0,5,0.00
2013-3-4,40.7,34.4,28.6,29.6,25.7,21.9,86,71,57,29.72,29.57,9,2,9,0.00
2013-3-5,46.9,37.2,31.4,34.0,29.3,24.3,94,74,56,30.04,29.73,5,0,5,0.01
2013-3-6,40.3,36.2,33.5,36.8,34.1,31.7,98,92,79,30.06,30.00,14,3,17,0.16
2013-3-7,35.4,31.8,29.9,32.4,30.7,29.2,98,96,83,30.01,29.95,10,1,12,0.17
2013-3-8,36.1,31.5,29.4,34.7,30.4,28.5,99,96,83,30.11,29.90,8,0,9,0.01
2013-3-9,46.4,35.4,25.7,33.5,28.3,24.1,96,76,53,30.32,30.11,7,1,7,0.63
2013-3-10,45.6,34.5,23.5,34.5,29.9,22.5,97,84,63,30.39,30.28,6,0,10,0.00
2013-3-11,53.2,42.2,34.6,42.9,37.9,32.5,97,85,65,30.31,30.13,8,1,9,0.00
2013-3-12,54.7,49.6,42.3,53.4,48.7,41.4,100,97,88,30.14,29.70,18,2,19,0.48
2013-3-13,52.1,43.3,30.8,51.8,33.2,22.8,100,70,39,29.76,29.66,7,1,7,0.00
2013-3-14,35.7,30.2,23.3,26.6,17.9,8.7,87,61,43,29.83,29.70,11,2,11,0.00
2013-3-15,41.9,31.1,22.0,30.0,17.4,8.3,89,59,29,29.86,29.62,11,2,11,0.00
2013-3-16,35.2,31.9,28.4,29.6,22.9,14.2,89,70,45,29.83,29.67,5,1,5,0.00
2013-3-17,39.0,31.2,22.7,22.5,14.6,6.1,86,53,28,30.28,29.84,9,3,9,0.00
2013-3-18,39.0,30.4,18.2,26.8,13.2,3.9,88,51,28,30.44,30.19,8,1,8,0.00
2013-3-19,37.6,32.3,28.7,37.2,31.7,26.8,99,97,88,30.19,29.58,8,2,8,0.00
2013-3-20,39.4,31.6,26.3,28.6,23.2,19.0,96,73,49,29.80,29.68,13,2,13,0.00
2013-3-21,36.7,30.5,24.5,31.4,25.3,19.8,95,82,58,29.81,29.59,5,0,5,0.00
2013-3-22,40.4,33.7,27.6,27.7,22.0,18.1,92,63,44,29.74,29.59,10,2,10,0.00
2013-3-23,42.6,35.6,28.9,25.7,22.5,20.0,81,60,41,29.78,29.63,16,2,16,0.00
2013-3-24,48.7,38.5,31.0,29.6,25.4,21.2,82,60,42,29.81,29.68,7,1,7,0.00
2013-3-25,43.7,36.5,29.7,34.6,30.7,26.9,91,80,58,29.75,29.48,12,2,13,0.00
2013-3-26,49.1,40.1,31.1,32.7,28.6,23.9,89,65,41,29.77,29.50,7,1,7,0.00
2013-3-27,54.4,41.2,25.9,32.0,27.1,23.5,93,61,33,29.84,29.72,9,1,9,0.00
2013-3-28,49.1,42.4,36.8,37.5,34.5,31.8,95,75,52,30.00,29.84,6,0,6,0.00
2013-3-29,59.1,45.2,30.5,39.1,33.0,29.5,98,66,35,30.03,29.94,7,1,7,0.00
2013-3-30,57.9,46.8,34.6,35.3,27.0,18.1,82,50,22,30.08,29.98,7,1,7,0.00
2013-3-31,61.1,44.5,27.4,43.3,30.4,24.4,94,63,27,30.10,29.70,11,1,12,0.02
2013-4-1,64.1,47.0,34.4,46.2,39.2,15.8,99,77,43,29.78,29.48,11,2,11,0.19
2013-4-2,41.2,34.3,27.9,22.3,16.6,10.7,69,49,32,29.94,29.78,12,3,21,0.00
2013-4-3,45.4,36.5,30.4,19.8,16.4,12.4,63,45,28,30.15,29.93,15,3,15,0.00
2013-4-4,57.6,41.5,28.3,29.4,20.3,13.3,70,46,19,30.29,30.05,9,1,10,0.00
2013-4-5,62.1,46.5,37.0,34.5,29.1,21.3,79,55,22,30.05,29.60,8,1,8,0.00
2013-4-6,47.7,38.3,28.8,28.9,15.7,4.9,71,43,18,30.31,29.86,9,1,9,0.00
2013-4-7,56.0,41.6,25.7,41.9,30.4,19.9,92,67,36,30.31,29.99,16,2,17,0.00
2013-4-8,68.3,54.1,43.5,45.6,42.7,38.1,96,69,35,30.06,29.94,8,1,8,0.00
2013-4-9,72.8,58.1,47.2,54.9,46.2,41.3,97,68,40,30.06,29.83,12,1,12,0.00
2013-4-10,68.7,53.9,44.2,52.5,47.7,43.6,99,81,54,29.98,29.82,10,1,10,0.13
2013-4-11,53.7,47.4,40.3,48.4,42.3,30.1,99,84,52,30.11,29.79,6,0,6,0.05
2013-4-12,40.2,38.5,37.0,38.7,36.7,32.1,99,93,75,30.13,29.75,13,2,14,0.38
2013-4-13,55.7,44.5,35.7,41.6,37.6,34.6,99,79,51,29.91,29.71,6,1,7,0.06
2013-4-14,53.6,44.7,36.0,40.6,34.3,27.6,96,69,42,30.20,29.90,7,1,8,0.00
2013-4-15,59.6,45.0,29.5,39.0,33.9,28.1,97,68,39,30.37,30.20,8,1,9,0.00
2013-4-16,65.5,51.0,34.5,51.7,43.8,33.6,99,78,52,30.38,30.06,13,2,13,0.00
2013-4-17,69.5,58.8,44.9,53.5,41.6,31.5,90,58,26,30.30,30.05,8,1,8,0.00
2013-4-18,62.2,44.1,35.3,42.3,37.3,33.3,98,81,38,30.39,30.30,9,1,10,0.00
2013-4-19,72.8,62.2,51.4,63.6,58.7,47.4,100,89,69,30.12,29.65,14,7,14,0.00
2013-4-20,64.3,53.2,43.4,62.8,40.9,26.0,99,66,44,30.21,29.59,12,2,12,0.38
2013-4-21,55.9,43.9,33.0,34.2,26.3,21.7,88,52,29,30.66,30.21,8,1,8,0.00
2013-4-22,52.7,42.0,30.0,38.5,32.0,26.8,98,71,38,30.71,30.56,14,2,14,0.00
2013-4-23,41.9,40.6,38.4,41.4,38.8,32.6,99,93,78,30.56,30.08,8,1,9,0.02
2013-4-24,77.8,55.2,40.6,54.2,45.9,40.3,99,76,28,30.08,29.78,9,1,9,0.00
2013-4-25,66.3,54.8,41.0,52.8,39.0,27.3,97,60,27,30.24,29.82,9,1,9,0.02
2013-4-26,63.7,48.6,33.1,44.0,38.1,31.0,94,70,38,30.40,30.24,9,1,9,0.00
2013-4-27,64.8,49.7,33.4,45.1,38.2,32.6,99,69,36,30.40,30.27,9,1,9,0.00
2013-4-28,70.3,53.2,34.8,44.0,36.8,32.5,98,60,31,30.32,30.20,10,1,11,0.00
2013-4-29,68.5,56.1,44.2,49.0,39.7,30.3,95,59,30,30.25,30.17,11,1,11,0.00
2013-4-30,73.5,56.4,39.2,41.4,31.9,20.1,88,45,17,30.34,30.23,8,1,8,0.00
2013-5-1,72.0,54.4,34.0,42.4,37.3,32.5,96,58,28,30.44,30.34,13,1,13,0.00
2013-5-2,80.2,56.6,40.1,49.0,43.3,39.1,98,67,28,30.45,30.30,9,1,10,0.00
2013-5-3,60.7,48.7,40.0,46.9,41.8,38.1,94,78,58,30.48,30.35,11,1,11,0.00
2013-5-4,61.8,48.5,34.7,48.2,38.5,30.3,99,72,34,30.35,30.27,12,1,12,0.00
2013-5-5,64.3,48.6,32.8,46.8,39.8,32.0,99,74,46,30.30,30.20,9,1,9,0.00
2013-5-6,76.0,54.3,34.8,52.8,45.2,33.8,99,75,40,30.27,30.11,8,1,8,0.00
2013-5-7,78.4,61.8,41.9,60.1,53.1,41.1,99,76,49,30.16,30.07,8,1,8,0.00
2013-5-8,71.8,62.4,53.4,67.2,59.2,52.7,100,90,68,30.16,30.02,17,1,17,0.15
2013-5-9,68.8,60.6,56.9,62.9,59.6,56.9,100,97,75,30.01,29.85,5,0,5,0.37
2013-5-10,83.3,67.5,52.7,62.1,57.4,52.7,100,74,41,29.93,29.86,5,0,5,0.00
2013-5-11,71.0,63.0,57.5,63.5,59.8,55.3,99,90,74,29.90,29.67,13,1,13,0.04
2013-5-12,72.8,61.3,49.0,61.3,53.1,34.8,100,77,46,29.80,29.54,8,1,8,0.02
2013-5-13,60.9,49.7,38.7,37.5,33.7,29.6,85,56,34,30.01,29.80,8,1,8,0.00
2013-5-14,60.3,49.3,37.2,37.9,34.4,30.8,92,59,34,30.03,29.95,7,0,8,0.00
2013-5-15,67.7,51.4,33.3,53.1,42.4,31.8,96,76,36,30.04,29.66,8,1,8,0.04
2013-5-16,83.0,67.3,51.6,53.0,46.6,38.3,98,54,23,29.77,29.61,10,1,10,0.00
2013-5-17,71.5,58.8,45.6,50.5,45.4,41.3,95,64,37,30.20,29.77,7,0,7,0.00
2013-5-18,74.7,59.0,41.6,51.6,45.9,39.8,99,67,33,30.28,30.20,6,0,6,0.00
2013-5-19,72.7,58.9,46.8,55.8,51.8,45.4,99,79,52,30.32,30.19,5,0,5,0.08
2013-5-20,84.8,68.8,55.4,68.1,62.8,55.1,100,84,54,30.19,29.89,6,0,6,0.02
2013-5-21,91.0,66.4,51.8,72.4,61.5,51.5,100,87,50,29.97,29.79,8,0,8,0.08
2013-5-22,73.6,60.3,50.3,68.3,58.1,50.0,100,93,82,30.02,29.84,5,0,5,0.03
2013-5-23,74.7,66.1,56.1,70.1,64.2,55.6,100,94,81,29.90,29.78,9,0,9,0.19
2013-5-24,70.1,62.4,48.9,68.1,61.9,48.6,100,98,89,29.80,29.63,6,0,6,0.58
2013-5-25,52.7,47.4,40.5,51.3,47.0,39.9,100,99,92,29.79,29.69,9,1,9,0.28
2013-5-26,59.4,48.8,39.2,45.0,41.4,37.9,99,77,52,30.09,29.72,9,2,9,0.02
2013-5-27,73.7,57.1,39.5,47.9,42.1,36.8,98,64,28,30.15,30.05,7,1,9,0.00
2013-5-28,78.0,60.5,40.6,56.7,48.2,39.8,100,69,32,30.21,30.13,6,0,6,0.00
2013-5-29,76.0,64.7,57.4,69.4,62.4,56.6,100,93,77,30.16,29.96,7,0,7,1.00
2013-5-30,90.0,75.5,61.8,73.7,68.5,61.8,100,81,53,30.07,29.98,5,0,9,0.00
2013-5-31,95.2,80.2,63.8,75.0,68.9,63.8,100,72,41,30.07,29.91,6,0,8,0.00
2013-6-1,93.5,79.2,65.5,72.4,68.1,63.1,93,71,46,29.96,29.84,7,1,7,0.00
2013-6-2,89.8,77.0,66.8,72.8,68.0,64.7,96,76,49,29.87,29.71,11,1,11,0.00
2013-6-3,79.3,68.6,62.5,71.1,66.1,54.9,100,92,72,29.82,29.74,3,0,4,0.50
2013-6-4,73.3,61.6,47.6,55.1,48.5,42.6,95,64,43,30.07,29.80,6,0,6,0.00
2013-6-5,76.5,61.9,46.3,55.6,50.1,45.8,100,69,39,30.17,30.07,6,0,6,0.00
2013-6-6,75.6,63.0,51.5,58.4,53.2,49.1,96,72,46,30.17,30.08,5,0,6,0.00
2013-6-7,59.5,56.0,53.6,59.5,55.8,53.6,100,99,93,30.08,29.77,5,0,5,1.40
2013-6-8,79.4,63.1,53.0,68.1,59.2,53.0,100,88,64,29.99,29.58,6,1,6,0.00
2013-6-9,81.9,67.5,53.8,62.0,58.4,53.6,100,76,45,30.14,29.98,7,0,7,0.00
2013-6-10,70.5,61.3,53.4,64.4,59.3,53.1,100,94,70,30.17,29.98,4,0,4,0.30
2013-6-11,66.7,59.6,56.7,63.4,59.0,56.6,100,98,87,29.98,29.54,5,0,5,0.28
2013-6-12,70.5,62.8,56.6,59.4,56.7,53.6,100,82,61,29.79,29.54,8,1,8,0.00
2013-6-13,63.4,55.3,50.0,61.9,54.5,49.7,100,97,87,29.81,29.63,4,0,4,0.24
2013-6-14,70.0,58.7,51.1,61.3,55.5,51.1,100,90,66,29.75,29.59,8,0,8,0.34
2013-6-15,81.2,65.7,52.3,55.5,52.4,44.6,100,68,34,29.92,29.75,5,0,6,0.00
2013-6-16,75.5,65.3,50.1,65.1,57.9,49.3,98,79,56,29.93,29.69,5,0,5,0.00
2013-6-17,88.3,70.9,58.2,68.1,62.8,57.4,100,79,44,29.88,29.75,8,1,8,0.46
2013-6-18,80.7,63.7,57.9,70.4,61.8,57.9,100,94,68,29.92,29.82,7,0,7,0.58
2013-6-19,78.0,64.5,54.8,60.9,56.6,51.3,100,78,44,30.13,29.87,5,0,5,0.02
2013-6-20,81.8,66.6,50.2,59.1,54.8,49.8,100,70,39,30.23,30.13,4,0,4,0.00
2013-6-21,84.7,70.8,56.1,69.5,62.0,54.1,94,75,55,30.24,30.16,5,0,5,0.00
2013-6-22,85.8,72.3,62.5,67.1,61.6,55.9,82,70,50,30.20,30.09,6,0,6,0.00
2013-6-23,91.3,76.3,63.1,76.0,67.4,58.2,88,75,55,30.14,29.98,6,0,6,0.00
2013-6-24,93.8,80.2,68.7,77.0,72.0,66.4,99,78,53,30.01,29.85,6,1,8,0.02
2013-6-25,92.9,77.7,66.2,75.2,70.4,65.9,100,81,52,29.91,29.71,7,1,10,0.06
2013-6-26,88.1,75.9,67.9,75.3,70.7,67.4,100,85,60,29.82,29.70,4,0,5,0.00
2013-6-27,70.2,66.2,63.7,68.5,65.6,62.8,100,98,91,29.83,29.72,2,0,2,0.02
2013-6-28,83.0,71.3,62.8,76.5,69.2,62.8,100,94,73,29.73,29.47,6,0,9,0.21
2013-6-29,70.5,70.5,70.5,69.6,69.6,69.6,97,97,97,29.53,29.53,1,1,1,0.21
2013-6-30,70.5,70.5,70.5,69.6,69.6,69.6,97,97,97,29.53,29.53,1,1,1,0.21
2013-7-1,70.5,70.5,70.5,69.6,69.6,69.6,97,97,97,29.53,29.53,1,1,1,0.21
2013-7-2,83.8,75.3,70.5,76.4,72.3,68.4,97,91,76,30.16,29.53,5,1,5,0.07
2013-7-3,89.0,75.8,64.2,77.5,71.6,63.8,100,88,66,30.19,30.11,7,1,7,0.02
2013-7-4,92.5,82.1,74.3,79.0,75.4,72.5,95,81,61,30.18,30.07,7,1,7,0.02
2013-7-5,94.3,83.5,74.2,79.1,75.3,72.0,94,78,56,30.14,30.01,7,1,7,0.00
2013-7-6,93.2,82.4,74.2,78.3,74.7,72.1,95,79,56,30.05,29.94,7,0,7,0.00
2013-7-7,95.0,80.1,70.3,79.9,74.4,69.4,100,84,58,29.99,29.88,5,0,5,0.14
2013-7-8,93.3,77.8,66.7,79.0,73.1,66.7,100,88,55,30.03,29.88,6,0,6,1.64
2013-7-9,75.8,68.8,65.9,72.8,68.0,65.9,100,97,89,30.07,30.00,4,0,4,0.00
2013-7-10,86.7,74.4,67.3,77.8,72.4,66.7,100,94,75,30.04,29.77,6,0,6,0.04
2013-7-11,81.8,74.7,69.9,77.1,73.6,69.5,100,96,84,29.89,29.76,3,0,3,0.19
2013-7-12,76.5,69.5,65.0,69.5,64.9,60.8,100,86,72,30.16,29.89,6,0,6,0.00
2013-7-13,76.3,69.7,64.9,73.8,68.7,62.5,100,97,92,30.28,30.16,2,0,2,0.07
2013-7-14,91.6,79.9,72.0,78.6,74.7,72.0,100,86,61,30.27,30.16,3,0,4,0.00
2013-7-15,93.8,81.0,71.1,79.6,75.2,71.1,100,84,58,30.18,30.07,2,0,3,0.00
2013-7-16,94.9,81.2,67.4,77.5,72.7,67.4,100,78,50,30.13,30.07,3,0,3,0.00
2013-7-17,96.9,82.1,70.4,78.4,74.2,70.4,100,79,48,30.15,29.98,4,0,4,0.00
2013-7-18,97.8,84.8,74.1,79.3,75.5,71.9,94,76,50,29.99,29.89,4,0,5,0.00
2013-7-19,88.7,77.6,74.7,79.0,75.5,74.1,99,94,72,29.92,29.85,4,0,4,0.00
2013-7-22,88.7,78.0,70.9,78.5,71.0,69.1,95,80,59,29.96,29.84,5,0,5,0.01
2013-7-23,85.4,73.4,70.0,80.7,72.6,69.2,100,98,77,29.84,29.50,4,0,6,1.21
2013-7-24,84.8,75.7,68.5,75.7,70.4,59.8,100,85,62,29.91,29.55,8,0,8,0.00
2013-7-25,68.3,60.6,58.2,60.1,57.2,52.3,100,89,73,30.06,29.91,8,0,8,0.38
2013-7-26,70.5,63.5,58.6,68.6,63.0,58.6,100,98,91,30.02,29.92,4,0,5,0.18
2013-7-27,85.0,71.4,59.4,72.1,66.0,59.4,100,85,56,30.04,29.96,4,0,4,0.00
2013-7-28,85.2,73.0,64.1,74.1,69.4,63.4,100,89,63,29.99,29.92,4,0,4,0.01
2013-7-29,84.2,74.0,65.6,75.5,70.6,65.6,100,90,73,30.01,29.93,5,0,8,0.02
2013-7-30,84.5,70.9,59.4,67.6,62.9,58.5,99,78,50,30.07,30.00,5,0,5,0.00
2013-7-31,83.1,70.8,58.5,67.9,63.3,58.2,100,79,51,30.12,30.01,4,0,4,0.00
2013-8-1,82.0,70.0,60.6,70.4,64.8,60.3,100,85,62,30.03,29.85,7,0,7,0.00
2013-8-2,84.1,71.9,64.0,71.1,65.6,62.9,100,83,51,29.86,29.77,3,0,6,0.23
2013-8-3,80.3,70.3,63.3,67.9,64.9,61.3,96,83,62,29.85,29.76,5,0,5,0.00
2013-8-4,81.5,66.9,56.2,64.3,59.9,55.8,99,81,48,29.87,29.74,6,0,7,0.02
2013-8-5,77.6,63.5,52.4,57.1,53.3,46.7,100,73,37,30.03,29.88,5,0,5,0.00
2013-8-6,81.1,64.6,48.5,59.8,55.1,48.1,100,75,44,30.12,30.02,3,0,3,0.00
2013-8-7,81.5,66.6,52.3,64.2,57.4,51.9,100,76,38,30.16,30.09,7,0,12,0.00
2013-8-8,80.1,71.1,62.9,73.5,68.3,59.0,100,91,79,30.10,29.98,6,0,7,0.18
2013-8-9,74.9,72.5,70.4,74.9,72.0,70.2,100,98,95,30.01,29.73,6,0,6,0.70
2013-8-10,83.9,73.2,59.3,73.2,65.3,56.3,100,79,46,29.99,29.77,6,0,7,0.00
2013-8-11,81.5,67.1,52.5,63.3,58.1,52.2,100,76,47,30.07,29.98,4,0,4,0.00
2013-8-12,84.8,70.5,59.1,66.6,62.4,58.4,100,79,46,30.01,29.90,4,0,5,0.00
2013-8-13,74.5,67.3,62.8,70.1,65.5,62.1,99,94,78,29.91,29.66,4,0,4,0.00
2013-8-14,74.2,66.1,58.3,65.3,57.6,52.6,100,76,54,29.95,29.65,9,1,9,0.00
2013-8-15,78.7,64.5,51.0,58.5,55.2,50.5,100,75,43,30.10,29.95,5,0,6,0.00
2013-8-16,81.8,66.4,52.2,62.0,57.7,51.8,100,77,44,30.17,30.09,4,0,4,0.00
2013-8-17,83.0,67.8,53.2,65.8,60.4,52.8,100,80,48,30.25,30.17,4,0,4,0.00
2013-8-18,82.3,67.3,57.1,67.5,61.7,56.8,100,84,52,30.25,30.07,3,0,3,0.00
2013-8-19,84.0,70.0,57.7,67.4,62.8,56.9,99,80,50,30.07,29.93,4,0,4,0.00
2013-8-20,87.5,73.6,60.5,68.6,64.9,59.9,100,77,45,30.07,29.96,4,0,4,0.00
2013-8-21,89.9,74.5,60.3,72.3,66.1,60.0,100,78,47,30.12,30.00,5,0,5,0.00
2013-8-22,83.8,73.5,63.5,74.6,69.5,63.2,100,88,70,30.02,29.81,4,0,6,0.00
2013-8-23,81.3,71.8,59.3,70.2,64.5,57.7,99,80,52,30.09,29.80,5,0,7,0.00
2013-8-24,78.0,64.0,50.7,57.9,53.9,49.8,100,73,41,30.32,30.09,5,0,5,0.00
2013-8-25,84.5,66.9,50.1,63.9,56.4,49.6,100,73,41,30.34,30.17,4,0,4,0.00
2013-8-26,79.0,70.1,63.4,69.9,64.2,58.3,94,82,67,30.18,29.86,6,0,6,0.00
2013-8-27,82.4,71.6,64.4,74.6,69.2,64.1,100,93,73,29.87,29.80,4,0,4,0.23
2013-8-28,87.1,72.4,60.2,73.7,66.8,60.2,100,85,54,29.94,29.82,4,0,4,0.00
2013-8-29,66.7,63.9,60.7,66.3,63.2,59.3,100,97,93,30.04,29.92,6,0,6,0.00
2013-8-30,83.3,69.2,60.4,71.6,65.3,59.0,98,88,66,30.01,29.81,4,0,4,0.00
2013-8-31,79.8,73.5,67.5,75.2,71.7,67.4,100,94,85,29.82,29.77,4,0,4,0.00
2013-9-1,76.7,72.2,68.6,76.4,72.0,68.6,100,99,96,29.85,29.77,3,0,3,0.42
2013-9-2,80.2,73.6,68.5,76.7,72.5,68.5,100,97,84,29.84,29.68,8,0,8,0.31
2013-9-3,80.3,71.9,62.4,73.0,69.6,60.9,100,93,74,29.80,29.67,4,0,4,0.00
2013-9-4,81.2,67.4,56.2,64.6,60.5,56.1,100,81,51,29.90,29.79,6,0,6,0.01
2013-9-5,70.7,61.4,49.5,64.1,57.9,48.7,100,89,66,30.12,29.84,5,0,6,0.08
2013-9-6,70.3,55.5,42.2,52.8,47.2,41.8,100,77,41,30.23,30.08,4,0,4,0.00
2013-9-7,80.3,62.4,46.3,60.1,53.4,45.8,98,75,43,30.08,29.84,4,0,4,0.00
2013-9-8,76.0,64.5,48.0,65.3,56.3,44.8,97,76,48,30.07,29.73,5,0,5,0.00
2013-9-9,70.3,55.8,40.5,53.6,47.8,40.0,100,77,48,30.22,30.07,5,0,5,0.00
2013-9-10,75.2,65.3,54.1,71.2,62.9,51.6,99,92,87,30.14,30.01,6,0,6,0.02
2013-9-11,96.5,80.2,67.8,80.6,74.4,67.8,100,84,51,30.05,29.92,5,1,5,0.00
2013-9-12,87.5,76.5,68.6,77.5,72.3,68.5,100,87,66,29.95,29.66,8,0,8,0.33
2013-9-13,79.8,69.0,59.3,71.1,66.1,57.3,100,91,67,29.74,29.54,4,0,4,0.13
2013-9-14,68.4,60.2,51.0,59.1,55.4,50.3,98,85,68,30.04,29.74,4,0,4,0.00
2013-9-15,72.1,58.2,45.8,57.0,51.8,45.5,100,82,53,30.15,30.04,4,0,4,0.00
2013-9-16,65.5,56.8,47.6,59.9,53.3,41.2,99,88,76,30.22,30.00,8,0,10,0.03
2013-9-17,62.6,50.2,37.3,48.5,42.2,36.1,98,76,47,30.40,30.22,5,0,5,0.00
2013-9-18,75.0,55.4,38.8,53.7,46.7,38.5,100,77,37,30.32,30.13,4,0,4,0.00
2013-9-19,81.0,61.6,44.7,59.7,53.1,44.1,100,77,42,30.13,30.01,4,0,4,0.00
2013-9-20,82.8,63.0,46.6,62.3,55.3,46.1,100,80,42,30.06,29.92,3,0,3,0.00
2013-9-21,74.4,64.4,52.1,66.8,61.5,51.8,100,91,68,30.01,29.70,8,0,8,0.00
2013-9-22,71.1,63.5,49.4,68.4,58.9,47.5,100,86,59,29.81,29.58,10,0,10,0.57
2013-9-23,64.9,52.5,42.6,49.8,45.5,41.5,97,79,53,29.99,29.81,5,0,5,0.00
2013-9-24,68.6,53.3,40.8,50.7,45.4,39.3,95,77,46,29.98,29.75,7,0,7,0.00
2013-9-25,69.3,55.4,42.1,56.7,49.6,41.7,100,82,59,29.96,29.84,6,0,6,0.00
2013-9-26,65.3,56.9,50.6,54.2,51.5,49.4,98,83,61,30.10,29.95,6,0,7,0.00
2013-9-27,64.8,56.8,47.4,57.3,53.4,46.9,98,89,73,30.24,30.09,4,0,5,0.00
2013-9-28,73.5,56.0,42.3,60.4,51.3,41.9,100,86,57,30.31,30.23,5,0,5,0.00
2013-9-29,69.3,52.5,43.4,56.8,48.3,42.9,100,88,52,30.25,30.09,5,0,5,0.00
2013-9-30,68.2,54.9,45.9,55.0,50.6,45.4,100,88,52,30.10,29.94,5,0,5,0.01
2013-10-1,78.4,58.6,41.9,59.9,52.1,41.6,100,83,46,29.94,29.82,6,0,6,0.00
2013-10-2,79.0,63.7,49.8,65.2,58.4,49.8,100,85,59,29.94,29.81,6,0,6,0.00
2013-10-3,78.4,59.5,47.9,59.8,53.0,47.6,100,83,43,30.06,29.94,3,0,3,0.00
2013-10-4,62.2,54.2,47.4,59.9,53.6,46.9,100,98,82,30.07,30.01,2,0,3,0.74
2013-10-5,68.4,60.8,55.5,63.9,59.4,55.5,100,95,83,30.10,30.03,3,0,3,0.05
2013-10-6,59.4,57.0,55.2,59.0,57.0,55.2,100,100,98,30.19,30.08,3,0,3,0.06
2013-10-7,75.3,65.2,55.8,72.8,63.7,55.8,100,95,84,30.10,29.80,11,1,11,0.06
2013-10-8,65.6,55.6,44.2,57.0,49.5,43.6,98,82,54,30.34,29.88,5,0,5,0.03
2013-10-9,60.7,48.8,40.1,50.4,44.6,39.8,100,87,62,30.44,30.34,4,0,7,0.02
2013-10-10,62.4,51.3,40.7,56.6,49.4,40.4,100,94,78,30.34,30.14,5,0,5,0.02
2013-10-11,68.2,56.4,48.3,60.2,52.7,47.6,100,88,68,30.14,30.05,5,0,6,0.02
2013-10-12,60.9,53.6,47.7,58.1,52.7,47.4,100,97,87,30.35,30.11,7,0,7,0.01
2013-10-13,59.5,51.2,39.1,52.2,48.1,38.6,100,90,73,30.41,30.33,6,0,6,0.02
2013-10-14,62.6,47.5,32.1,50.4,41.9,31.9,100,84,47,30.39,30.23,4,0,4,0.01
2013-10-15,67.0,55.9,45.7,57.4,51.6,45.2,100,86,66,30.25,30.15,4,0,4,0.01
2013-10-16,61.1,53.6,45.1,57.3,52.4,44.6,100,96,86,30.15,29.89,3,0,3,0.01
2013-10-17,70.2,59.8,50.0,63.0,57.7,50.0,100,93,75,29.90,29.70,7,0,7,0.01
2013-10-18,66.0,59.6,44.2,61.8,53.1,42.6,100,81,56,29.89,29.59,9,1,9,0.01
2013-10-19,65.9,52.1,37.0,50.3,44.9,36.5,100,79,48,29.95,29.73,4,0,4,0.01
2013-10-20,61.1,52.0,37.9,50.8,42.7,36.1,99,74,42,30.01,29.67,8,1,8,0.00
2013-10-21,65.8,50.5,35.6,46.8,41.8,34.7,98,75,45,30.10,29.98,6,0,6,0.01
2013-10-22,67.3,52.2,37.8,55.4,46.8,37.0,100,83,57,29.98,29.68,6,0,7,0.00
2013-10-23,50.7,43.4,34.7,42.7,38.0,33.9,99,82,57,29.78,29.57,1,0,2,0.00
2013-10-24,52.2,44.1,34.2,38.4,33.0,27.7,96,67,41,29.88,29.63,8,1,8,0.01
2013-10-25,48.7,39.1,29.4,37.4,31.1,27.6,96,75,51,30.15,29.88,5,0,6,0.00
2013-10-26,54.1,41.4,27.6,39.7,32.2,26.4,98,73,40,30.15,29.86,10,1,10,0.00
2013-10-27,54.3,46.5,37.9,40.7,36.7,32.1,94,70,48,30.05,29.80,8,1,8,0.01
2013-10-28,57.4,43.5,28.8,39.2,33.8,27.5,98,71,47,30.32,30.05,8,1,9,0.00
2013-10-29,48.7,36.6,27.9,32.4,27.5,25.4,93,72,42,30.43,30.32,4,0,5,0.00
2013-10-30,55.1,40.2,28.0,45.3,36.3,25.7,97,86,66,30.36,30.17,4,0,4,0.00
2013-10-31,61.7,47.6,30.9,60.5,46.5,30.4,100,96,89,30.22,29.78,7,0,7,0.03
2013-11-1,69.3,63.4,58.7,64.3,59.9,55.4,100,89,76,29.77,29.44,18,2,18,0.04
2013-11-2,65.5,54.9,45.4,55.7,47.4,44.1,98,78,46,29.70,29.56,5,0,5,0.01
2013-11-3,51.5,42.2,32.5,47.6,33.3,21.0,90,72,44,30.39,29.69,3,0,5,0.00
2013-11-4,41.1,32.6,24.4,25.0,21.1,17.6,91,65,39,30.69,30.39,5,0,6,0.02
2013-11-5,48.8,36.3,23.2,35.0,28.9,21.3,95,76,53,30.70,30.50,5,0,5,0.02
2013-11-6,59.8,49.1,36.8,51.2,43.2,33.7,94,81,57,30.50,30.03,7,1,9,0.00
2013-11-7,67.2,53.9,39.1,60.0,51.6,35.4,99,92,76,30.03,29.65,10,1,10,0.02
2013-11-8,47.1,38.9,29.9,37.8,29.9,24.3,91,71,50,30.09,29.80,10,1,10,0.10
2013-11-9,43.9,37.1,28.6,32.7,27.7,24.8,88,70,50,30.20,30.01,5,0,6,0.04
2013-11-10,55.2,45.8,40.7,44.5,38.5,32.7,98,76,58,30.01,29.72,11,1,11,0.04
2013-11-11,50.7,44.9,38.4,36.3,31.7,28.6,75,60,44,30.09,29.85,7,1,8,0.00
2013-11-12,49.6,36.5,27.0,40.6,28.8,18.2,97,74,59,30.18,29.87,12,1,13,0.08
2013-11-13,36.2,29.0,21.8,22.5,17.9,14.5,86,64,44,30.27,30.16,5,1,5,0.00
2013-11-14,50.6,39.6,27.8,28.1,23.5,18.5,73,53,40,30.16,30.03,8,1,8,0.00
2013-11-15,60.9,46.0,31.2,37.2,26.6,18.8,80,49,24,30.18,30.09,6,0,6,0.00
2013-11-16,58.7,44.7,32.0,40.1,33.0,28.9,89,66,32,30.30,30.17,4,0,4,0.00
2013-11-17,59.0,46.6,31.0,58.2,44.5,28.8,100,93,76,30.29,29.81,5,0,5,0.04
2013-11-18,64.0,58.2,48.1,62.1,49.8,34.1,100,76,49,29.81,29.52,9,1,9,0.21
2013-11-19,48.2,40.0,31.3,35.0,26.0,20.6,68,57,47,30.26,29.64,10,2,10,0.03
2013-11-20,40.2,31.3,21.7,24.9,18.4,14.4,85,61,35,30.60,30.26,6,0,6,0.01
2013-11-21,47.1,32.7,18.7,33.2,23.8,16.9,94,72,43,30.62,30.37,5,0,5,0.00
2013-11-22,49.4,44.4,38.9,49.4,42.9,33.0,100,95,78,30.36,29.80,5,0,5,0.11
2013-11-23,47.6,40.7,29.4,47.0,29.5,17.9,98,66,39,29.89,29.77,9,2,10,0.00
2013-11-24,29.3,24.2,20.6,18.8,8.0,-1.9,81,51,28,30.19,29.79,12,4,14,0.00
2013-11-25,33.2,25.4,15.8,21.1,8.7,-1.3,73,50,26,30.35,30.19,7,1,7,0.00
2013-11-26,41.6,36.4,30.5,36.2,26.7,20.6,99,69,47,30.31,29.99,8,0,8,0.12
2013-11-27,61.5,50.5,36.4,61.5,50.1,34.0,100,99,90,29.99,29.19,22,2,22,0.97
2013-11-28,36.8,33.4,33.0,34.6,27.9,27.2,93,80,79,29.68,29.46,10,1,10,0.03
2013-11-29,33.9,30.6,21.0,27.2,20.9,8.7,79,68,48,30.72,29.68,5,1,7,0.03
2013-11-30,32.7,24.5,14.0,24.9,17.0,10.5,88,73,54,30.77,30.41,5,0,5,0.00
2013-12-1,37.9,33.9,28.7,37.8,32.7,24.2,100,95,82,30.41,29.99,3,0,3,0.01
2013-12-2,40.1,37.4,35.8,40.0,37.3,35.8,100,100,98,29.99,29.89,1,0,2,0.21
2013-12-3,47.7,38.7,31.2,39.7,36.1,30.2,100,91,67,29.93,29.82,4,0,4,0.06
2013-12-4,46.0,33.8,27.6,35.5,30.5,27.2,100,89,62,30.18,29.93,4,0,4,0.00
2013-12-5,54.9,42.8,29.4,54.9,41.8,28.7,100,96,88,30.18,29.89,9,0,9,0.01
2013-12-6,56.9,49.3,35.1,56.4,47.6,34.6,100,94,81,30.11,29.83,5,0,5,0.15
2013-12-7,38.9,33.3,26.0,35.1,30.6,24.8,100,90,70,30.44,30.05,5,0,6,0.25
2013-12-8,32.0,27.9,20.9,25.1,21.0,18.3,95,76,60,30.58,30.43,2,0,2,0.00
2013-12-9,37.0,31.8,25.8,37.0,31.0,21.2,100,97,73,30.47,29.87,4,0,4,0.00
2013-12-10,33.2,30.4,23.2,33.2,29.9,21.0,100,98,89,30.00,29.76,3,0,3,0.00
2013-12-11,29.7,24.6,20.4,25.3,21.2,18.6,95,87,78,30.21,30.00,9,1,9,0.00
2013-12-12,25.1,20.4,12.6,22.0,12.7,6.0,92,73,49,30.26,30.06,9,0,9,0.00
2013-12-13,29.6,22.4,14.6,24.0,14.6,8.8,84,72,59,30.36,30.00,11,2,12,0.00
2013-12-14,26.5,15.4,11.7,25.8,8.9,0.2,98,76,54,30.58,30.10,4,0,4,0.00
2013-12-15,35.6,28.5,23.7,35.6,27.3,22.1,100,95,88,30.10,29.39,9,1,9,0.00
2013-12-16,27.8,23.4,13.6,22.7,15.7,9.4,95,73,51,30.19,29.73,8,1,8,0.00
2013-12-17,19.6,11.8,1.1,18.3,9.6,-1.4,95,91,83,30.26,29.92,3,0,3,0.00
2013-12-18,34.1,25.4,17.0,27.0,21.3,15.1,96,85,67,30.08,29.86,6,0,6,0.00
2013-12-19,43.6,33.4,24.4,30.8,26.1,20.7,89,75,56,30.11,29.94,12,1,13,0.05
2013-12-20,52.8,40.5,29.8,40.5,34.0,28.1,95,79,56,30.10,29.90,6,1,7,0.56
2013-12-21,58.8,49.7,41.5,50.8,45.6,36.5,97,86,74,29.95,29.84,6,1,6,0.03
2013-12-22,65.8,52.2,36.9,62.5,50.5,36.6,99,94,70,29.99,29.74,8,1,11,0.01
2013-12-23,38.1,35.2,33.4,37.9,35.1,33.3,100,100,99,30.07,29.93,5,0,5,0.14
2013-12-24,38.5,32.8,26.9,38.5,27.2,15.6,100,80,61,30.18,30.02,5,0,5,0.19
2013-12-25,26.9,19.9,14.9,15.9,9.8,5.7,87,65,50,30.52,30.18,7,1,7,0.00
2013-12-26,33.7,25.5,15.0,31.6,22.4,11.8,97,88,80,30.49,30.07,2,0,3,0.00
2013-12-27,34.6,27.9,22.0,26.3,22.2,19.5,95,80,61,30.27,30.19,5,0,5,0.00
2013-12-28,46.1,34.7,25.2,31.8,27.2,22.1,92,75,53,30.21,29.98,14,1,14,0.04
2013-12-29,42.5,35.1,27.5,39.8,33.4,25.7,100,94,75,30.02,29.37,7,0,8,0.85
2013-12-30,39.5,32.3,20.1,37.1,25.9,13.1,100,79,49,30.14,29.50,8,1,9,0.06
2013-12-31,26.7,20.3,15.0,17.6,11.4,3.1,84,69,53,30.18,30.00,6,0,6,0.00
2014-1-1,27.9,21.7,15.2,16.4,12.0,7.7,84,67,50,30.36,30.18,8,1,8,0.00
2014-1-2,21.2,13.7,1.8,18.4,11.1,-1.0,93,89,75,30.33,29.79,7,1,7,0.00